Time;durP1;ratioP1;P1;durP2;ratioP2;P2;SDS_P1;SDS_P2;PMS_P1;PMS_P2;Temp;Humidity;BMP_temperature;BMP_pressure;BME280_temperature;BME280_humidity;BME280_pressure;Samples;Min_cycle;Max_cycle;Signal;HPM_P1;HPM_P2
2022/11/09 00:01:19;;;;;;;3.75;2.42;;;12.70;99.90;;;;;;4970115;28;20046;-77
2022/11/09 00:03:44;;;;;;;5.75;2.63;;;12.70;99.90;;;;;;4981814;28;20825;-77
2022/11/09 00:06:10;;;;;;;5.93;2.38;;;12.70;99.90;;;;;;4984101;28;20053;-77
2022/11/09 00:08:37;;;;;;;4.20;2.25;;;12.60;99.90;;;;;;4986961;28;20051;-77
2022/11/09 00:11:09;;;;;;;5.63;2.40;;;12.60;99.90;;;;;;4985403;28;20049;-77
2022/11/09 00:13:39;;;;;;;7.22;2.50;;;12.60;99.90;;;;;;4982648;28;20074;-77
2022/11/09 00:16:06;;;;;;;2.70;2.10;;;12.60;99.90;;;;;;4977363;28;20058;-79
2022/11/09 00:18:36;;;;;;;4.05;2.40;;;12.60;99.90;;;;;;4976194;28;20046;-77
2022/11/09 00:21:06;;;;;;;3.42;2.30;;;12.60;99.90;;;;;;4983386;28;20528;-76
2022/11/09 00:23:32;;;;;;;11.75;2.95;;;12.60;99.90;;;;;;4982537;28;20122;-77
2022/11/09 00:26:02;;;;;;;3.72;2.45;;;12.60;99.90;;;;;;4982451;28;20053;-77
2022/11/09 00:28:28;;;;;;;5.50;2.90;;;12.60;99.90;;;;;;4981576;28;20512;-77
2022/11/09 00:31:04;;;;;;;5.35;2.65;;;12.60;99.90;;;;;;4976593;28;20081;-76
2022/11/09 00:33:30;;;;;;;5.43;2.33;;;12.60;99.90;;;;;;4986000;28;20054;-77
2022/11/09 00:35:56;;;;;;;4.25;2.50;;;12.60;99.90;;;;;;4984333;28;20776;-77
2022/11/09 00:38:22;;;;;;;6.00;2.28;;;12.60;99.90;;;;;;4988303;28;20034;-77
2022/11/09 00:40:47;;;;;;;6.55;2.40;;;12.50;99.90;;;;;;4980761;28;20058;-77
2022/11/09 00:43:16;;;;;;;5.43;2.78;;;12.50;99.90;;;;;;4987310;28;20050;-77
2022/11/09 00:45:41;;;;;;;3.65;2.42;;;12.50;99.90;;;;;;4980484;28;20049;-77
2022/11/09 00:48:07;;;;;;;3.50;2.15;;;12.50;99.90;;;;;;4981783;28;20101;-77
2022/11/09 00:50:33;;;;;;;5.45;2.47;;;12.60;99.90;;;;;;4968364;28;20042;-77
2022/11/09 00:52:59;;;;;;;6.82;2.72;;;12.60;99.90;;;;;;4965255;28;20814;-77
2022/11/09 00:55:25;;;;;;;5.57;2.40;;;12.60;99.90;;;;;;4982927;28;20054;-77
2022/11/09 00:57:52;;;;;;;6.03;2.40;;;12.70;99.90;;;;;;4981343;28;20045;-77
2022/11/09 01:00:19;;;;;;;4.63;2.58;;;12.70;99.90;;;;;;4980788;28;20035;-78
2022/11/09 01:02:44;;;;;;;6.78;2.47;;;12.70;99.90;;;;;;4981678;28;20061;-78
2022/11/09 01:05:10;;;;;;;7.00;2.50;;;12.70;99.90;;;;;;4980869;28;20428;-78
2022/11/09 01:07:36;;;;;;;3.55;2.33;;;12.70;99.90;;;;;;4979707;28;20080;-78
2022/11/09 01:10:04;;;;;;;6.45;2.88;;;12.70;99.90;;;;;;4981352;28;20670;-78
2022/11/09 01:12:29;;;;;;;3.47;2.05;;;12.70;99.90;;;;;;4983515;28;20133;-78
2022/11/09 01:14:55;;;;;;;4.60;2.45;;;12.70;99.90;;;;;;4983213;28;20034;-78
2022/11/09 01:17:21;;;;;;;4.05;2.10;;;12.70;99.90;;;;;;4982115;28;20093;-78
2022/11/09 01:19:48;;;;;;;5.40;2.10;;;12.60;99.90;;;;;;4983436;28;20046;-77
2022/11/09 01:22:13;;;;;;;7.45;2.40;;;12.50;99.90;;;;;;4980981;28;20551;-78
2022/11/09 01:24:39;;;;;;;5.65;2.67;;;12.50;99.90;;;;;;4979445;28;20043;-78
2022/11/09 01:27:05;;;;;;;4.05;2.60;;;12.50;99.90;;;;;;4983388;28;20062;-78
2022/11/09 01:29:30;;;;;;;5.40;2.28;;;12.40;99.90;;;;;;4985978;28;20389;-78
2022/11/09 01:31:56;;;;;;;4.13;2.20;;;12.40;99.90;;;;;;4987274;28;20038;-78
2022/11/09 01:34:22;;;;;;;5.63;2.45;;;12.30;99.90;;;;;;4981357;28;20117;-77
2022/11/09 01:36:51;;;;;;;5.72;2.47;;;12.20;99.90;;;;;;4981846;28;20045;-78
2022/11/09 01:39:18;;;;;;;5.95;2.63;;;12.10;99.90;;;;;;4981956;28;20573;-78
2022/11/09 01:41:44;;;;;;;5.10;2.55;;;12.10;99.90;;;;;;4983213;28;20516;-78
2022/11/09 01:44:14;;;;;;;9.18;2.70;;;12.00;99.90;;;;;;4988038;28;20093;-78
2022/11/09 01:47:02;;;;;;;4.97;2.83;;;12.10;99.90;;;;;;4985308;28;20378;-77
2022/11/09 01:49:44;;;;;;;5.28;2.80;;;12.00;99.90;;;;;;4968996;28;20050;-77
2022/11/09 01:52:12;;;;;;;6.95;2.80;;;12.00;99.90;;;;;;4975731;28;20054;-78
2022/11/09 01:54:44;;;;;;;6.63;2.45;;;12.00;99.90;;;;;;4982557;28;20047;-78
2022/11/09 01:57:16;;;;;;;7.75;2.80;;;12.00;99.90;;;;;;4980815;28;20042;-78
2022/11/09 01:59:47;;;;;;;5.88;2.80;;;12.00;99.90;;;;;;4980280;28;20078;-78
2022/11/09 02:02:13;;;;;;;6.57;2.60;;;12.00;99.90;;;;;;4981442;28;20058;-78
2022/11/09 02:04:43;;;;;;;6.10;2.95;;;11.90;99.90;;;;;;4983326;28;20051;-77
2022/11/09 02:07:09;;;;;;;6.95;2.95;;;11.90;99.90;;;;;;4981548;28;20046;-78
2022/11/09 02:09:55;;;;;;;5.57;2.30;;;11.90;99.90;;;;;;4981861;28;20385;-78
2022/11/09 02:12:21;;;;;;;4.93;2.33;;;11.90;99.90;;;;;;4980628;28;20439;-78
2022/11/09 02:14:51;;;;;;;7.32;2.42;;;11.90;99.90;;;;;;4982748;28;20058;-77
2022/11/09 02:17:18;;;;;;;4.72;2.45;;;11.90;99.90;;;;;;4961775;28;20113;-77
2022/11/09 02:19:43;;;;;;;5.75;2.33;;;12.50;99.90;;;;;;4967700;28;20054;-78
2022/11/09 02:22:09;;;;;;;4.78;2.22;;;11.90;99.90;;;;;;5000241;28;20038;-78
2022/11/09 02:24:35;;;;;;;7.45;2.63;;;11.90;99.90;;;;;;4986325;28;20050;-78
2022/11/09 02:27:00;;;;;;;7.88;2.88;;;11.80;99.90;;;;;;4984873;28;20050;-78
2022/11/09 02:29:39;;;;;;;5.97;2.38;;;11.80;99.90;;;;;;4987670;28;20076;-77
2022/11/09 02:32:16;;;;;;;4.85;2.75;;;11.90;99.90;;;;;;4984976;28;20481;-78
2022/11/09 02:34:41;;;;;;;4.70;2.30;;;11.80;99.90;;;;;;4986665;28;20050;-78
2022/11/09 02:37:07;;;;;;;3.28;2.00;;;11.80;99.90;;;;;;4968473;28;20046;-78
2022/11/09 02:39:34;;;;;;;5.22;2.45;;;11.80;99.90;;;;;;4976462;28;20090;-78
2022/11/09 02:42:06;;;;;;;5.50;2.55;;;11.80;99.90;;;;;;4985526;28;20532;-78
2022/11/09 02:44:35;;;;;;;8.13;2.40;;;11.70;99.90;;;;;;4986442;28;20755;-78
2022/11/09 02:47:01;;;;;;;6.88;2.72;;;11.70;99.90;;;;;;4985911;28;20096;-78
2022/11/09 02:49:26;;;;;;;7.88;2.30;;;11.70;99.90;;;;;;4985428;28;20054;-78
2022/11/09 02:51:52;;;;;;;5.25;2.58;;;11.70;99.90;;;;;;4989782;28;20046;-78
2022/11/09 02:54:17;;;;;;;6.70;2.30;;;11.70;99.90;;;;;;4990337;28;20066;-78
2022/11/09 02:56:43;;;;;;;6.60;2.33;;;11.80;99.90;;;;;;4987272;28;20050;-78
2022/11/09 02:59:09;;;;;;;7.90;2.05;;;11.70;99.90;;;;;;4989924;28;20053;-78
2022/11/09 03:01:34;;;;;;;5.20;2.00;;;11.70;99.90;;;;;;4988079;28;20413;-78
2022/11/09 03:04:00;;;;;;;6.00;2.10;;;11.70;99.90;;;;;;4989661;28;20078;-78
2022/11/09 03:06:33;;;;;;;4.93;2.13;;;11.70;99.90;;;;;;4972136;28;20042;-78
2022/11/09 03:09:00;;;;;;;6.82;2.22;;;11.80;99.90;;;;;;4970081;28;20101;-78
2022/11/09 03:11:26;;;;;;;7.88;2.35;;;11.80;99.90;;;;;;4987670;28;20437;-78
2022/11/09 03:13:52;;;;;;;7.40;2.05;;;11.80;99.90;;;;;;4990701;28;20109;-78
2022/11/09 03:16:17;;;;;;;8.45;2.40;;;11.80;99.90;;;;;;4988291;28;20061;-78
2022/11/09 03:18:43;;;;;;;4.25;1.80;;;11.80;99.90;;;;;;4988101;28;20057;-78
2022/11/09 03:21:08;;;;;;;9.73;2.35;;;11.70;99.90;;;;;;4986952;28;20105;-78
2022/11/09 03:23:34;;;;;;;11.65;2.63;;;11.80;99.90;;;;;;4987798;28;20783;-78
2022/11/09 03:25:59;;;;;;;6.32;2.47;;;11.70;99.90;;;;;;4989464;28;20053;-78
2022/11/09 03:28:25;;;;;;;6.88;2.42;;;11.70;99.90;;;;;;4987409;28;20051;-78
2022/11/09 03:30:51;;;;;;;7.97;2.45;;;11.70;99.90;;;;;;4987130;28;20137;-78
2022/11/09 03:33:16;;;;;;;6.10;2.20;;;11.70;99.90;;;;;;4979210;28;20093;-77
2022/11/09 03:35:42;;;;;;;5.13;2.72;;;11.60;99.90;;;;;;4972033;28;20043;-78
2022/11/09 03:38:08;;;;;;;6.03;2.03;;;11.60;99.90;;;;;;4981534;28;20049;-78
2022/11/09 03:40:34;;;;;;;6.70;2.15;;;11.60;99.90;;;;;;4986747;28;20054;-78
2022/11/09 03:43:00;;;;;;;6.20;2.20;;;11.50;99.90;;;;;;4989722;28;20429;-78
2022/11/09 03:45:26;;;;;;;7.03;2.20;;;11.40;99.90;;;;;;4982202;28;20128;-77
2022/11/09 03:47:58;;;;;;;5.40;2.10;;;11.40;99.90;;;;;;4988673;28;20533;-78
2022/11/09 03:50:24;;;;;;;8.25;3.03;;;11.30;99.90;;;;;;4988417;28;20076;-78
2022/11/09 03:52:50;;;;;;;8.15;2.10;;;11.30;99.90;;;;;;4988074;28;20117;-77
2022/11/09 03:55:15;;;;;;;5.68;2.10;;;11.30;99.90;;;;;;4989220;28;20050;-78
2022/11/09 03:57:44;;;;;;;6.70;2.35;;;11.30;99.90;;;;;;4987512;28;20477;-78
2022/11/09 04:00:13;;;;;;;10.38;2.60;;;11.30;99.90;;;;;;4970905;28;20054;-77
2022/11/09 04:02:39;;;;;;;7.35;2.50;;;11.40;99.90;;;;;;4984723;28;20101;-78
2022/11/09 04:05:06;;;;;;;6.47;2.25;;;11.40;99.90;;;;;;4988167;28;20046;-77
2022/11/09 04:07:31;;;;;;;7.80;2.53;;;11.50;99.90;;;;;;4988222;28;20046;-78
2022/11/09 04:09:57;;;;;;;6.55;2.53;;;11.60;99.90;;;;;;4988527;28;20050;-78
2022/11/09 04:12:23;;;;;;;6.60;2.45;;;11.70;99.90;;;;;;4987129;28;20093;-78
2022/11/09 04:14:48;;;;;;;8.32;2.67;;;11.70;99.90;;;;;;4984725;28;20484;-78
2022/11/09 04:17:14;;;;;;;6.05;2.58;;;11.70;99.90;;;;;;4982767;28;20046;-78
2022/11/09 04:19:40;;;;;;;6.65;2.25;;;11.70;99.90;;;;;;4980579;28;20039;-78
2022/11/09 04:22:05;;;;;;;7.68;2.55;;;11.60;99.90;;;;;;4982830;28;20045;-77
2022/11/09 04:24:31;;;;;;;10.05;2.72;;;11.60;99.90;;;;;;4982341;28;20853;-78
2022/11/09 04:26:56;;;;;;;5.45;2.42;;;11.60;99.90;;;;;;4981967;28;20133;-77
2022/11/09 04:29:22;;;;;;;6.40;2.40;;;11.60;99.90;;;;;;4982434;28;20054;-77
2022/11/09 04:31:48;;;;;;;9.45;2.42;;;11.50;99.90;;;;;;4981938;28;20365;-77
2022/11/09 04:34:14;;;;;;;5.75;2.65;;;11.50;99.90;;;;;;4984275;28;20136;-77
2022/11/09 04:36:39;;;;;;;5.60;2.30;;;11.50;99.90;;;;;;4988276;28;20054;-77
2022/11/09 04:39:05;;;;;;;5.30;2.13;;;11.50;99.90;;;;;;4985650;28;20053;-78
2022/11/09 04:41:31;;;;;;;5.75;2.38;;;11.50;99.90;;;;;;4982607;28;20055;-77
2022/11/09 04:43:56;;;;;;;6.03;2.75;;;11.50;99.90;;;;;;4982441;28;20509;-77
2022/11/09 04:46:22;;;;;;;6.30;2.15;;;11.50;99.90;;;;;;4983327;28;20413;-77
2022/11/09 04:48:47;;;;;;;8.02;2.45;;;11.50;99.90;;;;;;4982621;28;20050;-77
2022/11/09 04:51:13;;;;;;;5.07;2.30;;;11.50;99.90;;;;;;4981160;28;20057;-77
2022/11/09 04:53:39;;;;;;;5.90;2.65;;;11.60;99.90;;;;;;4982371;28;20034;-77
2022/11/09 04:56:06;;;;;;;6.63;2.50;;;11.60;99.90;;;;;;4983518;28;20128;-77
2022/11/09 04:58:32;;;;;;;4.07;2.10;;;11.60;99.90;;;;;;4983879;28;20042;-77
2022/11/09 05:01:02;;;;;;;6.82;2.30;;;11.80;99.90;;;;;;4984370;28;20567;-77
2022/11/09 05:03:28;;;;;;;7.40;2.63;;;11.60;99.90;;;;;;4983300;28;20046;-77
2022/11/09 05:05:53;;;;;;;6.93;2.47;;;11.70;99.90;;;;;;4981524;28;20467;-77
2022/11/09 05:08:19;;;;;;;8.30;2.28;;;11.70;99.90;;;;;;4983607;28;20082;-78
2022/11/09 05:10:45;;;;;;;7.35;2.75;;;11.70;99.90;;;;;;4983483;28;20123;-78
2022/11/09 05:13:12;;;;;;;6.38;2.50;;;11.70;99.90;;;;;;4986658;28;20057;-78
2022/11/09 05:15:38;;;;;;;6.32;2.30;;;11.80;99.90;;;;;;4982808;28;20058;-78
2022/11/09 05:18:05;;;;;;;12.18;2.90;;;11.70;99.90;;;;;;4987720;28;20442;-78
2022/11/09 05:20:30;;;;;;;6.43;2.35;;;11.80;99.90;;;;;;4987444;28;20183;-78
2022/11/09 05:25:41;;;;;;;6.50;2.42;;;12.00;99.90;;;;;;4983135;28;20409;-78
2022/11/09 05:28:07;;;;;;;5.72;2.28;;;11.80;99.90;;;;;;4968762;28;20049;-78
2022/11/09 05:30:33;;;;;;;7.20;2.50;;;11.90;99.90;;;;;;4984032;28;20053;-78
2022/11/09 05:32:58;;;;;;;7.30;2.33;;;11.90;99.90;;;;;;4981919;28;20042;-78
2022/11/09 05:35:24;;;;;;;6.30;2.10;;;11.90;99.90;;;;;;4965221;28;20039;-78
2022/11/09 05:37:50;;;;;;;5.93;2.28;;;11.80;99.90;;;;;;4970660;28;20048;-78
2022/11/09 05:40:17;;;;;;;7.63;2.63;;;11.80;99.90;;;;;;4982324;28;20065;-77
2022/11/09 05:42:43;;;;;;;6.43;2.40;;;11.80;99.90;;;;;;4982147;28;20489;-78
2022/11/09 05:45:12;;;;;;;6.85;2.30;;;11.70;99.90;;;;;;4981613;28;20050;-77
2022/11/09 05:47:39;;;;;;;7.43;2.88;;;11.60;99.90;;;;;;4981982;28;21631;-78
2022/11/09 05:50:06;;;;;;;5.60;2.42;;;11.60;99.90;;;;;;4982027;28;20042;-78
2022/11/09 05:52:32;;;;;;;5.45;1.90;;;11.50;99.90;;;;;;4982815;28;20042;-78
2022/11/09 05:54:59;;;;;;;8.48;2.63;;;11.50;99.90;;;;;;4983589;28;20049;-78
2022/11/09 05:57:28;;;;;;;4.95;2.00;;;11.40;99.90;;;;;;4980367;28;20093;-78
2022/11/09 05:59:53;;;;;;;5.43;2.50;;;11.40;99.90;;;;;;4981458;28;20073;-78
2022/11/09 06:02:19;;;;;;;8.95;2.53;;;11.40;99.90;;;;;;4966758;28;20047;-78
2022/11/09 06:04:45;;;;;;;7.18;2.42;;;11.30;99.90;;;;;;4987246;28;20073;-78
2022/11/09 06:07:10;;;;;;;5.68;2.42;;;11.30;99.90;;;;;;4981837;28;20042;-78
2022/11/09 06:09:36;;;;;;;6.03;2.50;;;11.30;99.90;;;;;;4982031;28;20049;-78
2022/11/09 06:12:02;;;;;;;6.63;2.47;;;11.30;99.90;;;;;;4983873;28;20149;-78
2022/11/09 06:14:27;;;;;;;7.22;2.35;;;11.30;99.90;;;;;;4981254;28;20058;-77
2022/11/09 06:16:53;;;;;;;5.78;2.65;;;11.20;99.90;;;;;;4982580;28;20038;-78
2022/11/09 06:19:19;;;;;;;6.07;2.40;;;11.20;99.90;;;;;;4983075;28;20046;-78
2022/11/09 06:21:44;;;;;;;9.50;2.00;;;11.20;99.90;;;;;;4964611;28;20146;-78
2022/11/09 06:24:10;;;;;;;5.65;2.50;;;11.20;99.90;;;;;;4984144;28;20400;-78
2022/11/09 06:26:36;;;;;;;5.60;2.03;;;11.20;99.90;;;;;;4988336;28;20105;-78
2022/11/09 06:29:02;;;;;;;6.32;2.45;;;11.20;99.90;;;;;;4991832;28;20050;-78
2022/11/09 06:31:27;;;;;;;7.10;2.10;;;11.20;99.90;;;;;;4990865;28;20409;-78
2022/11/09 06:33:53;;;;;;;8.13;2.50;;;11.40;99.90;;;;;;4986591;28;20041;-78
2022/11/09 06:36:19;;;;;;;7.07;2.25;;;11.20;99.90;;;;;;4989526;28;20453;-78
2022/11/09 06:38:50;;;;;;;8.25;2.25;;;11.20;99.90;;;;;;4983867;28;20046;-79
2022/11/09 06:41:16;;;;;;;6.03;2.30;;;11.20;99.90;;;;;;4973913;28;20089;-79
2022/11/09 06:43:42;;;;;;;8.13;2.05;;;11.20;99.90;;;;;;4970696;28;20086;-79
2022/11/09 06:46:09;;;;;;;7.25;2.13;;;11.20;99.90;;;;;;4973499;28;20042;-79
2022/11/09 06:48:36;;;;;;;4.25;2.10;;;11.20;99.90;;;;;;4989579;28;20162;-79
2022/11/09 06:51:03;;;;;;;8.35;2.25;;;11.20;99.90;;;;;;4989905;28;20063;-78
2022/11/09 06:53:31;;;;;;;7.22;2.08;;;11.20;99.90;;;;;;4988334;28;20035;-79
2022/11/09 06:56:01;;;;;;;6.80;2.17;;;11.20;99.90;;;;;;4977626;28;20090;-79
2022/11/09 06:58:27;;;;;;;6.95;2.13;;;11.20;99.90;;;;;;4986527;28;20042;-79
2022/11/09 07:00:53;;;;;;;6.15;1.90;;;11.20;99.90;;;;;;4975101;28;20046;-79
2022/11/09 07:03:21;;;;;;;5.18;2.20;;;11.20;99.90;;;;;;4998415;28;20048;-78
2022/11/09 07:05:47;;;;;;;8.95;1.92;;;11.20;99.90;;;;;;5009257;28;20140;-79
2022/11/09 07:08:14;;;;;;;5.63;2.10;;;11.10;99.90;;;;;;4997034;28;20485;-78
2022/11/09 07:10:40;;;;;;;7.18;2.30;;;11.10;99.90;;;;;;4982255;28;21010;-78
2022/11/09 07:13:06;;;;;;;6.75;2.20;;;11.10;99.90;;;;;;4990947;28;20131;-79
2022/11/09 07:15:32;;;;;;;6.07;1.88;;;11.00;99.90;;;;;;4973840;28;20500;-79
2022/11/09 07:17:59;;;;;;;9.02;2.38;;;11.00;99.90;;;;;;4990055;28;20093;-78
2022/11/09 07:20:25;;;;;;;7.18;2.50;;;11.00;99.90;;;;;;4991106;28;20919;-79
2022/11/09 07:22:51;;;;;;;8.85;1.98;;;11.00;99.90;;;;;;4989541;28;20069;-79
2022/11/09 07:25:17;;;;;;;7.07;1.95;;;11.00;99.90;;;;;;4989640;28;20496;-80
2022/11/09 07:27:43;;;;;;;6.38;2.28;;;11.00;99.90;;;;;;4988520;28;20124;-79
2022/11/09 07:30:09;;;;;;;7.72;2.08;;;11.00;99.90;;;;;;4990716;28;20089;-79
2022/11/09 07:32:37;;;;;;;7.15;2.00;;;11.00;99.90;;;;;;4990610;28;20057;-79
2022/11/09 07:35:03;;;;;;;9.00;2.10;;;11.00;99.90;;;;;;4987292;28;20050;-80
2022/11/09 07:37:29;;;;;;;5.88;2.70;;;11.00;99.90;;;;;;4990072;28;20416;-79
2022/11/09 07:39:55;;;;;;;7.63;2.90;;;11.00;99.90;;;;;;4989349;28;20054;-80
2022/11/09 07:42:21;;;;;;;9.60;2.70;;;10.90;99.90;;;;;;4987372;28;20461;-80
2022/11/09 07:44:46;;;;;;;8.30;3.33;;;11.00;99.90;;;;;;4983405;28;20129;-79
2022/11/09 07:47:12;;;;;;;9.63;2.55;;;11.00;99.90;;;;;;4970857;28;20054;-80
2022/11/09 07:49:38;;;;;;;5.75;2.20;;;11.00;99.90;;;;;;4973463;28;20049;-80
2022/11/09 07:52:04;;;;;;;11.98;2.72;;;11.10;99.90;;;;;;4987672;28;20057;-79
2022/11/09 07:54:29;;;;;;;8.90;3.50;;;11.10;99.90;;;;;;4988355;28;20045;-80
2022/11/09 07:56:55;;;;;;;7.43;2.70;;;11.10;99.90;;;;;;4984957;28;20097;-80
2022/11/09 07:59:21;;;;;;;10.15;2.67;;;11.20;99.90;;;;;;4983755;28;20129;-79
2022/11/09 08:01:46;;;;;;;7.75;2.50;;;11.20;99.90;;;;;;4988933;28;20051;-80
2022/11/09 08:04:13;;;;;;;7.20;2.67;;;11.20;99.90;;;;;;4989364;28;20061;-79
2022/11/09 08:06:39;;;;;;;7.63;3.00;;;11.30;99.90;;;;;;4972629;28;20041;-79
2022/11/09 08:09:04;;;;;;;8.35;3.00;;;11.30;99.90;;;;;;4988689;28;20097;-78
2022/11/09 08:11:30;;;;;;;7.60;2.53;;;11.40;99.90;;;;;;4987010;28;20524;-78
2022/11/09 08:13:56;;;;;;;7.40;2.70;;;11.40;99.90;;;;;;4989977;28;20058;-79
2022/11/09 08:16:22;;;;;;;7.65;2.97;;;11.40;99.90;;;;;;4987301;28;20050;-80
2022/11/09 08:18:49;;;;;;;10.50;3.05;;;11.40;99.90;;;;;;4988377;28;20747;-80
2022/11/09 08:21:15;;;;;;;8.02;2.50;;;11.40;99.90;;;;;;4988452;28;20390;-80
2022/11/09 08:23:41;;;;;;;7.88;2.38;;;11.50;99.90;;;;;;4988520;28;20050;-79
2022/11/09 08:26:07;;;;;;;7.82;2.70;;;11.50;99.90;;;;;;4987659;28;20054;-78
2022/11/09 08:28:33;;;;;;;9.18;2.90;;;11.60;99.90;;;;;;4987964;28;20513;-79
2022/11/09 08:31:02;;;;;;;11.18;3.40;;;11.60;99.90;;;;;;4987675;28;20530;-78
2022/11/09 08:33:30;;;;;;;10.23;3.25;;;11.70;99.90;;;;;;4989652;28;20046;-79
2022/11/09 08:35:56;;;;;;;11.07;2.78;;;12.30;99.90;;;;;;4987836;28;20042;-79
2022/11/09 08:38:22;;;;;;;8.85;2.30;;;11.90;99.90;;;;;;4988620;28;20046;-79
2022/11/09 08:40:47;;;;;;;8.23;2.65;;;12.00;99.90;;;;;;4988102;28;20054;-79
2022/11/09 08:43:13;;;;;;;9.25;2.85;;;11.80;99.90;;;;;;4986733;28;20054;-79
2022/11/09 08:45:39;;;;;;;7.07;2.40;;;11.80;99.90;;;;;;4987774;28;20065;-79
2022/11/09 08:48:06;;;;;;;10.93;2.60;;;11.90;99.90;;;;;;4987445;28;20061;-79
2022/11/09 08:50:34;;;;;;;6.82;2.63;;;11.90;99.90;;;;;;4989254;28;20054;-80
2022/11/09 08:53:01;;;;;;;12.23;3.05;;;12.00;99.90;;;;;;4987879;28;20046;-79
2022/11/09 08:55:26;;;;;;;9.80;2.83;;;12.10;99.90;;;;;;4987863;28;20405;-80
2022/11/09 08:57:57;;;;;;;7.78;2.80;;;12.20;99.90;;;;;;4981807;28;20074;-79
2022/11/09 09:00:23;;;;;;;7.57;2.40;;;12.20;99.90;;;;;;4968701;28;20055;-80
2022/11/09 09:02:49;;;;;;;8.32;2.67;;;12.30;99.90;;;;;;4968497;28;20058;-80
2022/11/09 09:05:15;;;;;;;11.10;2.95;;;12.30;99.90;;;;;;4968402;28;20475;-80
2022/11/09 09:07:41;;;;;;;11.40;2.70;;;12.40;99.90;;;;;;4967737;28;20087;-80
2022/11/09 09:10:07;;;;;;;10.45;2.72;;;12.50;99.90;;;;;;4967796;28;20074;-80
2022/11/09 09:12:33;;;;;;;11.85;4.22;;;12.50;99.90;;;;;;4967887;28;20051;-80
2022/11/09 09:14:59;;;;;;;8.93;3.17;;;12.60;99.90;;;;;;4985967;28;20112;-80
2022/11/09 09:17:25;;;;;;;9.43;2.88;;;12.60;99.90;;;;;;4988957;28;20042;-80
2022/11/09 09:19:50;;;;;;;10.00;3.45;;;12.80;99.90;;;;;;4987011;28;20112;-80
2022/11/09 09:22:17;;;;;;;9.63;3.28;;;12.70;99.90;;;;;;4970603;28;20481;-80
2022/11/09 09:24:42;;;;;;;11.02;3.40;;;12.70;99.90;;;;;;4987733;28;20050;-80
2022/11/09 09:27:08;;;;;;;9.30;3.58;;;12.80;99.90;;;;;;4988336;28;20041;-79
2022/11/09 09:29:33;;;;;;;9.85;4.30;;;12.80;99.90;;;;;;4986390;28;20480;-79
2022/11/09 09:31:59;;;;;;;7.57;3.00;;;12.90;99.90;;;;;;4987519;28;20053;-79
2022/11/09 09:34:27;;;;;;;8.57;2.97;;;12.90;99.90;;;;;;4987536;28;20100;-79
2022/11/09 09:36:53;;;;;;;10.13;3.25;;;13.40;99.90;;;;;;4986891;28;20082;-81
2022/11/09 09:39:19;;;;;;;7.63;3.08;;;13.00;99.90;;;;;;4987171;28;20124;-81
2022/11/09 09:41:55;;;;;;;9.30;3.53;;;13.10;99.90;;;;;;4971021;28;20054;-81
2022/11/09 09:44:40;;;;;;;11.02;3.15;;;13.10;99.90;;;;;;4985863;28;20337;-81
2022/11/09 09:47:37;;;;;;;8.98;3.70;;;13.10;99.90;;;;;;4987517;28;20043;-79
2022/11/09 09:50:36;;;;;;;9.50;3.05;;;13.10;99.90;;;;;;4986881;28;20061;-81
2022/11/09 09:53:50;;;;;;;10.02;2.80;;;13.20;99.90;;;;;;4986930;28;20054;-81
2022/11/09 09:56:26;;;;;;;8.55;3.20;;;12.90;99.90;;;;;;4988370;28;20141;-79
2022/11/09 09:59:39;;;;;;;5.20;2.65;;;13.20;99.90;;;;;;4974445;28;20051;-80
2022/11/09 10:02:22;;;;;;;8.32;2.75;;;13.30;99.90;;;;;;4988603;28;20092;-80
2022/11/09 10:04:54;;;;;;;7.75;2.90;;;13.30;99.90;;;;;;4991971;28;20049;-80
2022/11/09 10:08:12;;;;;;;12.48;3.28;;;13.40;99.90;;;;;;4979983;28;20044;-80
2022/11/09 10:10:43;;;;;;;7.35;3.22;;;13.40;99.90;;;;;;4990920;28;20049;-80
2022/11/09 10:13:18;;;;;;;6.82;2.78;;;13.80;99.90;;;;;;4990996;28;20050;-79
2022/11/09 10:16:34;;;;;;;12.07;2.97;;;13.50;99.90;;;;;;4974495;28;20112;-80
2022/11/09 10:19:34;;;;;;;9.40;3.80;;;13.60;99.90;;;;;;4937030;28;20057;-80
2022/11/09 10:22:11;;;;;;;12.48;3.78;;;14.20;99.90;;;;;;4954285;28;20054;-80
2022/11/09 10:25:13;;;;;;;8.15;2.75;;;13.60;99.90;;;;;;4966981;28;20505;-80
2022/11/09 10:27:59;;;;;;;8.65;3.17;;;13.70;99.90;;;;;;4963704;28;20062;-80
2022/11/09 10:30:26;;;;;;;9.98;2.92;;;13.80;99.90;;;;;;4987371;28;20070;-79
2022/11/09 10:33:06;;;;;;;11.82;3.47;;;14.40;99.90;;;;;;4981530;28;20046;-80
2022/11/09 10:35:37;;;;;;;8.15;2.75;;;14.00;99.90;;;;;;4974988;28;20133;-79
2022/11/09 10:38:03;;;;;;;8.43;3.17;;;14.00;99.90;;;;;;4990041;28;20050;-80
2022/11/09 10:40:33;;;;;;;7.78;3.13;;;13.90;99.90;;;;;;4990456;28;20058;-80
2022/11/09 10:43:01;;;;;;;9.50;2.97;;;13.90;99.90;;;;;;4989820;28;20039;-79
2022/11/09 10:45:36;;;;;;;7.28;2.80;;;13.80;99.90;;;;;;4990137;28;20050;-79
2022/11/09 10:48:03;;;;;;;6.75;3.00;;;13.80;99.90;;;;;;4973772;28;20077;-80
2022/11/09 10:50:29;;;;;;;11.98;3.10;;;13.80;99.90;;;;;;4982368;28;20066;-80
2022/11/09 10:53:18;;;;;;;9.82;3.13;;;13.80;99.90;;;;;;4990767;28;20046;-80
2022/11/09 10:55:51;;;;;;;10.13;3.40;;;13.80;99.90;;;;;;4972547;28;20054;-79
2022/11/09 10:58:21;;;;;;;9.77;3.67;;;13.80;99.90;;;;;;4990047;28;20151;-80
2022/11/09 11:01:17;;;;;;;9.52;3.25;;;13.70;99.90;;;;;;4991187;28;20043;-80
2022/11/09 11:03:44;;;;;;;7.15;2.95;;;13.80;99.90;;;;;;4991027;28;20042;-80
2022/11/09 11:06:21;;;;;;;9.43;3.38;;;13.90;99.90;;;;;;4990643;28;20058;-79
2022/11/09 11:09:11;;;;;;;9.10;2.92;;;13.90;99.90;;;;;;4989967;28;20822;-80
2022/11/09 11:11:38;;;;;;;11.25;3.88;;;13.90;99.90;;;;;;4978912;28;20042;-79
2022/11/09 11:14:20;;;;;;;7.53;2.55;;;14.60;99.90;;;;;;4990852;28;20046;-80
2022/11/09 11:16:47;;;;;;;8.00;3.00;;;14.10;99.90;;;;;;4991039;28;20057;-80
2022/11/09 11:19:33;;;;;;;6.88;2.50;;;14.00;99.90;;;;;;4991395;28;20078;-80
2022/11/09 11:22:10;;;;;;;9.18;3.03;;;14.10;99.90;;;;;;4989742;28;20520;-80
2022/11/09 11:24:55;;;;;;;9.40;3.22;;;14.10;99.90;;;;;;4990268;28;20050;-79
2022/11/09 11:27:29;;;;;;;6.88;2.47;;;14.00;99.90;;;;;;4989934;28;20514;-80
2022/11/09 11:30:04;;;;;;;8.02;2.65;;;13.90;99.90;;;;;;4973107;28;20556;-79
2022/11/09 11:32:32;;;;;;;6.43;2.38;;;13.90;99.90;;;;;;4990262;28;20042;-80
2022/11/09 11:34:57;;;;;;;9.50;2.65;;;13.80;99.90;;;;;;4990102;28;20133;-80
2022/11/09 11:37:43;;;;;;;10.02;2.80;;;13.90;99.90;;;;;;4988783;28;20512;-79
2022/11/09 11:40:18;;;;;;;7.75;2.70;;;13.90;99.90;;;;;;4990967;28;20416;-80
2022/11/09 11:43:22;;;;;;;12.48;2.22;;;13.90;99.90;;;;;;4989564;28;20046;-80
2022/11/09 11:46:13;;;;;;;8.27;2.28;;;13.90;99.90;;;;;;4979736;28;20061;-79
2022/11/09 11:48:58;;;;;;;6.07;2.17;;;14.00;99.90;;;;;;4987175;28;20054;-80
2022/11/09 11:51:49;;;;;;;7.82;2.30;;;13.90;99.90;;;;;;4988337;28;20461;-79
2022/11/09 11:55:04;;;;;;;7.82;2.40;;;13.90;99.90;;;;;;4984829;28;20045;-80
2022/11/09 11:57:35;;;;;;;6.50;2.20;;;13.90;99.90;;;;;;4983937;28;20062;-80
2022/11/09 12:00:17;;;;;;;6.32;2.03;;;13.80;99.90;;;;;;4984038;28;20125;-81
2022/11/09 12:02:56;;;;;;;8.53;2.60;;;13.80;99.90;;;;;;4953464;28;20062;-81
2022/11/09 12:05:34;;;;;;;6.72;2.58;;;13.90;99.90;;;;;;4971114;28;20380;-82
2022/11/09 12:08:07;;;;;;;9.05;2.83;;;14.00;99.90;;;;;;4975097;28;20096;-81
2022/11/09 12:10:39;;;;;;;11.05;2.80;;;14.00;99.90;;;;;;4984726;28;20500;-82
2022/11/09 12:13:24;;;;;;;7.22;2.30;;;14.10;99.90;;;;;;4988076;28;20810;-82
2022/11/09 12:15:54;;;;;;;8.82;2.95;;;14.10;99.90;;;;;;4971125;28;20409;-82
2022/11/09 12:18:33;;;;;;;7.00;2.45;;;14.00;99.90;;;;;;4979453;28;20500;-83
2022/11/09 12:21:16;;;;;;;9.40;2.53;;;14.00;99.90;;;;;;4971181;28;20050;-82
2022/11/09 12:24:10;;;;;;;6.00;2.67;;;13.90;99.90;;;;;;4957338;28;20129;-82
2022/11/09 12:27:07;;;;;;;10.20;3.22;;;13.80;99.90;;;;;;4985034;28;20053;-81
2022/11/09 12:29:42;;;;;;;9.88;3.15;;;13.70;99.90;;;;;;4989518;28;20108;-81
2022/11/09 12:32:35;;;;;;;9.45;3.22;;;13.60;99.90;;;;;;4989248;28;20049;-81
2022/11/09 12:35:07;;;;;;;7.90;2.70;;;13.70;99.90;;;;;;4988807;28;20050;-82
2022/11/09 12:37:39;;;;;;;8.10;3.00;;;13.70;99.90;;;;;;4988221;28;20405;-82
2022/11/09 12:40:27;;;;;;;7.33;2.67;;;13.80;99.90;;;;;;4987975;28;20512;-81
2022/11/09 12:43:21;;;;;;;7.55;2.78;;;13.90;99.90;;;;;;4988428;28;20289;-81
2022/11/09 12:45:50;;;;;;;8.32;2.30;;;14.10;99.90;;;;;;4986499;28;20058;-82
2022/11/09 12:48:30;;;;;;;5.45;2.10;;;14.00;99.90;;;;;;4988904;28;20045;-82
2022/11/09 12:50:58;;;;;;;7.32;2.70;;;14.00;99.90;;;;;;4988722;28;20134;-81
2022/11/09 12:53:32;;;;;;;6.40;2.90;;;14.00;99.90;;;;;;4988514;28;20042;-82
2022/11/09 12:56:14;;;;;;;7.57;2.83;;;14.00;99.90;;;;;;4987458;28;20061;-83
2022/11/09 12:58:39;;;;;;;7.65;2.60;;;13.90;99.90;;;;;;4988074;28;20061;-82
2022/11/09 13:01:10;;;;;;;8.80;3.10;;;13.90;99.90;;;;;;4988347;28;20043;-82
2022/11/09 13:03:51;;;;;;;5.63;2.58;;;13.80;99.90;;;;;;4972387;28;20583;-81